Time;durP1;ratioP1;P1;durP2;ratioP2;P2;SDS_P1;SDS_P2;PMS_P1;PMS_P2;Temp;Humidity;BMP_temperature;BMP_pressure;BME280_temperature;BME280_humidity;BME280_pressure;Samples;Min_cycle;Max_cycle;Signal;HPM_P1;HPM_P2
2023/03/02 00:02:17;;;;;;;14.40;9.70;;;;;7.60;102337.00;;;;5045179;28;20576;-73
2023/03/02 00:04:49;;;;;;;14.38;9.75;;;;;7.60;102334.00;;;;5048002;28;20196;-73
2023/03/02 00:07:22;;;;;;;13.05;8.85;;;;;7.60;102339.00;;;;5047086;28;20227;-72
2023/03/02 00:09:49;;;;;;;15.55;9.93;;;;;7.60;102344.00;;;;5047504;28;20208;-73
2023/03/02 00:12:17;;;;;;;17.40;9.68;;;;;7.60;102347.00;;;;5047479;28;20585;-72
2023/03/02 00:14:45;;;;;;;16.70;10.18;;;;;7.60;102344.00;;;;5044360;28;20200;-72
2023/03/02 00:17:13;;;;;;;16.08;10.68;;;;;7.50;102337.00;;;;5042217;28;20235;-73
2023/03/02 00:19:40;;;;;;;16.77;11.35;;;;;7.50;102340.00;;;;5037148;28;20190;-73
2023/03/02 00:22:08;;;;;;;18.52;11.15;;;;;7.50;102334.00;;;;5045872;28;20231;-72
2023/03/02 00:24:35;;;;;;;17.05;10.63;;;;;7.50;102318.00;;;;5048066;28;20196;-73
2023/03/02 00:27:02;;;;;;;18.67;11.07;;;;;7.50;102325.00;;;;5046723;28;20686;-73
2023/03/02 00:29:30;;;;;;;17.80;11.30;;;;;7.50;102321.00;;;;5047407;28;20192;-73
2023/03/02 00:31:58;;;;;;;16.60;10.88;;;;;7.50;102313.00;;;;5047164;28;20203;-72
2023/03/02 00:34:26;;;;;;;17.77;10.95;;;;;7.50;102322.00;;;;5047188;28;20206;-72
2023/03/02 00:36:53;;;;;;;17.75;11.38;;;;;7.50;102322.00;;;;5046279;28;20589;-73
2023/03/02 00:39:20;;;;;;;18.60;12.20;;;;;7.40;102323.00;;;;5047599;28;20219;-72
2023/03/02 00:41:48;;;;;;;20.50;12.35;;;;;7.40;102321.00;;;;5046456;28;20200;-72
2023/03/02 00:44:17;;;;;;;19.48;12.02;;;;;7.40;102323.00;;;;5048010;28;20206;-72
2023/03/02 00:46:44;;;;;;;17.17;11.52;;;;;7.40;102318.00;;;;5045885;28;20206;-72
2023/03/02 00:49:13;;;;;;;19.70;12.13;;;;;7.40;102326.00;;;;5046894;28;20199;-73
2023/03/02 00:51:41;;;;;;;18.67;12.48;;;;;7.40;102319.00;;;;5045647;28;20202;-72
2023/03/02 00:54:08;;;;;;;21.05;12.63;;;;;7.40;102320.00;;;;5047189;28;20196;-72
2023/03/02 00:56:36;;;;;;;22.08;13.93;;;;;7.40;102332.00;;;;5044619;28;20230;-72
2023/03/02 00:59:09;;;;;;;20.80;13.15;;;;;7.30;102341.00;;;;5040541;28;20211;-73
2023/03/02 01:01:38;;;;;;;18.88;12.10;;;;;7.30;102330.00;;;;5043979;28;20927;-72
2023/03/02 01:04:05;;;;;;;19.17;12.82;;;;;7.30;102337.00;;;;5027340;28;20690;-72
2023/03/02 01:06:34;;;;;;;20.40;13.82;;;;;7.30;102332.00;;;;5034101;28;20224;-72
2023/03/02 01:09:01;;;;;;;20.60;12.65;;;;;7.30;102321.00;;;;5042980;28;20200;-72
2023/03/02 01:11:29;;;;;;;22.27;13.48;;;;;7.30;102323.00;;;;5046663;28;20199;-72
2023/03/02 01:13:56;;;;;;;21.55;13.75;;;;;7.30;102332.00;;;;5046557;28;20212;-73
2023/03/02 01:16:23;;;;;;;21.30;13.73;;;;;7.30;102335.00;;;;5043907;28;20224;-72
2023/03/02 01:18:51;;;;;;;22.45;13.88;;;;;7.30;102335.00;;;;5047339;28;20222;-72
2023/03/02 01:21:18;;;;;;;20.33;12.60;;;;;7.30;102330.00;;;;5043671;28;20207;-72
2023/03/02 01:23:47;;;;;;;24.73;15.00;;;;;7.30;102327.00;;;;5046752;28;20203;-72
2023/03/02 01:26:14;;;;;;;24.95;14.93;;;;;7.30;102331.00;;;;5039084;28;20220;-73
2023/03/02 01:28:41;;;;;;;23.10;14.45;;;;;7.30;102324.00;;;;5042039;28;20214;-72
2023/03/02 01:31:09;;;;;;;23.48;14.27;;;;;7.30;102329.00;;;;5048158;28;20199;-72
2023/03/02 01:33:36;;;;;;;21.45;12.70;;;;;7.30;102322.00;;;;5050376;28;20204;-72
2023/03/02 01:36:03;;;;;;;21.55;13.75;;;;;7.30;102323.00;;;;5049669;28;20318;-72
2023/03/02 01:38:31;;;;;;;23.67;13.95;;;;;7.30;102319.00;;;;5050275;28;20195;-72
2023/03/02 01:40:59;;;;;;;22.58;12.80;;;;;7.30;102322.00;;;;5050630;28;20207;-72
2023/03/02 01:43:28;;;;;;;20.50;12.55;;;;;7.30;102320.00;;;;5045056;28;20322;-73
2023/03/02 01:45:57;;;;;;;23.27;13.43;;;;;7.30;102318.00;;;;5050130;28;20190;-73
2023/03/02 01:48:30;;;;;;;21.75;13.50;;;;;7.20;102311.00;;;;5049627;28;20209;-72
2023/03/02 01:50:58;;;;;;;22.40;13.40;;;;;7.30;102308.00;;;;5049878;28;20577;-72
2023/03/02 01:53:29;;;;;;;23.52;13.23;;;;;7.30;102310.00;;;;5049165;28;20200;-72
2023/03/02 01:55:59;;;;;;;24.65;13.43;;;;;7.30;102317.00;;;;5034507;28;20188;-72
2023/03/02 01:58:27;;;;;;;21.92;13.27;;;;;7.30;102312.00;;;;5046670;28;20584;-73
2023/03/02 02:00:56;;;;;;;21.33;12.25;;;;;7.30;102307.00;;;;5036267;28;20571;-73
2023/03/02 02:03:27;;;;;;;22.98;13.10;;;;;7.30;102303.00;;;;5049435;28;20662;-72
2023/03/02 02:06:06;;;;;;;23.30;13.98;;;;;7.20;102299.00;;;;5048092;28;20286;-72
2023/03/02 02:08:33;;;;;;;23.23;13.93;;;;;7.30;102302.00;;;;5049415;28;20285;-73
2023/03/02 02:11:03;;;;;;;21.52;12.15;;;;;7.30;102306.00;;;;5043364;28;20203;-72
2023/03/02 02:13:31;;;;;;;24.67;14.15;;;;;7.30;102305.00;;;;5046524;28;20200;-72
2023/03/02 02:15:58;;;;;;;22.13;12.52;;;;;7.30;102302.00;;;;5043529;28;20293;-72
2023/03/02 02:18:26;;;;;;;25.35;13.55;;;;;7.30;102301.00;;;;5044613;28;20207;-72
2023/03/02 02:20:55;;;;;;;22.17;13.32;;;;;7.20;102300.00;;;;5045883;28;20203;-73
2023/03/02 02:23:39;;;;;;;24.02;14.18;;;;;7.20;102295.00;;;;5048629;28;20204;-73
2023/03/02 02:26:17;;;;;;;22.48;13.32;;;;;7.20;102293.00;;;;5046978;28;20198;-72
2023/03/02 02:28:49;;;;;;;21.23;12.85;;;;;7.20;102294.00;;;;5047955;28;20199;-72
2023/03/02 02:31:21;;;;;;;22.20;12.50;;;;;7.20;102297.00;;;;5046494;28;20219;-72
2023/03/02 02:33:55;;;;;;;25.88;14.52;;;;;7.20;102287.00;;;;5046647;28;20230;-72
2023/03/02 02:36:26;;;;;;;23.23;13.32;;;;;7.20;102281.00;;;;5047522;28;20720;-72
2023/03/02 02:38:56;;;;;;;22.88;13.73;;;;;7.20;102283.00;;;;5048299;28;20200;-72
2023/03/02 02:41:29;;;;;;;22.55;13.15;;;;;7.20;102276.00;;;;5047277;28;20214;-72
2023/03/02 02:43:56;;;;;;;24.27;13.90;;;;;7.20;102281.00;;;;5048760;28;20569;-72
2023/03/02 02:46:24;;;;;;;25.48;14.38;;;;;7.20;102282.00;;;;5048141;28;20198;-73
2023/03/02 02:48:52;;;;;;;23.92;13.95;;;;;7.20;102280.00;;;;5047872;28;20693;-72
2023/03/02 02:51:23;;;;;;;22.67;13.95;;;;;7.20;102281.00;;;;5040655;28;20250;-72
2023/03/02 02:53:57;;;;;;;23.75;13.52;;;;;7.20;102279.00;;;;5048569;28;20246;-73
2023/03/02 02:56:28;;;;;;;20.80;12.35;;;;;7.20;102270.00;;;;5034895;28;20211;-73
2023/03/02 02:58:57;;;;;;;22.23;13.95;;;;;7.20;102263.00;;;;5034907;28;20211;-73
2023/03/02 03:01:25;;;;;;;23.58;13.02;;;;;7.20;102271.00;;;;5046672;28;20199;-73
2023/03/02 03:03:55;;;;;;;23.85;13.65;;;;;7.20;102266.00;;;;5046629;28;20195;-73
2023/03/02 03:06:27;;;;;;;21.25;12.25;;;;;7.10;102266.00;;;;5046807;28;20231;-72
2023/03/02 03:09:00;;;;;;;23.58;13.93;;;;;7.10;102275.00;;;;5042061;28;20199;-73
2023/03/02 03:11:31;;;;;;;19.83;12.00;;;;;7.10;102265.00;;;;5047523;28;20226;-73
2023/03/02 03:14:06;;;;;;;21.17;12.27;;;;;7.10;102257.00;;;;5048303;28;20226;-73
2023/03/02 03:16:35;;;;;;;21.63;12.68;;;;;7.10;102261.00;;;;5041457;28;20277;-73
2023/03/02 03:19:07;;;;;;;22.38;12.13;;;;;7.10;102253.00;;;;5048035;28;20202;-73
2023/03/02 03:21:35;;;;;;;23.95;13.02;;;;;7.10;102255.00;;;;5045332;28;20200;-73
2023/03/02 03:24:03;;;;;;;21.70;13.27;;;;;7.10;102256.00;;;;5042055;28;20208;-73
2023/03/02 03:26:31;;;;;;;20.48;12.68;;;;;7.10;102253.00;;;;5034015;28;20199;-73
2023/03/02 03:28:59;;;;;;;21.75;12.57;;;;;7.10;102248.00;;;;5047291;28;20199;-73
2023/03/02 03:31:27;;;;;;;21.55;12.13;;;;;7.10;102248.00;;;;5046282;28;20200;-73
2023/03/02 03:33:59;;;;;;;21.40;12.55;;;;;7.10;102262.00;;;;5044903;28;20206;-73
2023/03/02 03:36:27;;;;;;;20.20;12.15;;;;;7.10;102249.00;;;;5044953;28;20230;-73
2023/03/02 03:38:54;;;;;;;21.00;12.10;;;;;7.10;102256.00;;;;5045643;28;20677;-74
2023/03/02 03:41:22;;;;;;;21.70;12.88;;;;;7.10;102257.00;;;;5030099;28;20199;-73
2023/03/02 03:43:51;;;;;;;23.38;12.68;;;;;7.00;102257.00;;;;5046788;28;20608;-73
2023/03/02 03:46:18;;;;;;;19.05;11.88;;;;;7.10;102268.00;;;;5043923;28;20208;-73
2023/03/02 03:48:46;;;;;;;20.85;12.02;;;;;7.00;102262.00;;;;5045490;28;20202;-73
2023/03/02 03:51:13;;;;;;;21.30;12.45;;;;;7.00;102263.00;;;;5047091;28;20222;-73
2023/03/02 03:53:41;;;;;;;23.02;13.20;;;;;7.00;102257.00;;;;5046033;28;20196;-73
2023/03/02 03:56:08;;;;;;;20.98;12.25;;;;;7.00;102266.00;;;;5046651;28;20192;-73
2023/03/02 03:58:35;;;;;;;23.98;12.85;;;;;7.00;102257.00;;;;5043144;28;20231;-73
2023/03/02 04:01:05;;;;;;;21.73;13.32;;;;;7.00;102257.00;;;;5047404;28;20203;-73
2023/03/02 04:03:32;;;;;;;22.33;12.63;;;;;7.00;102255.00;;;;5045185;28;20207;-72
2023/03/02 04:05:59;;;;;;;20.95;12.70;;;;;7.00;102253.00;;;;5044311;28;20607;-72
2023/03/02 04:08:28;;;;;;;20.08;11.95;;;;;7.00;102257.00;;;;5047185;28;20219;-72
2023/03/02 04:10:55;;;;;;;19.77;11.27;;;;;7.00;102263.00;;;;5047073;28;20199;-72
2023/03/02 04:13:22;;;;;;;22.80;12.52;;;;;7.00;102267.00;;;;5045514;28;20200;-72
2023/03/02 04:15:50;;;;;;;17.45;11.45;;;;;7.00;102268.00;;;;5039457;28;20227;-72
2023/03/02 04:18:18;;;;;;;19.40;11.52;;;;;7.00;102262.00;;;;5042447;28;20246;-73
2023/03/02 04:20:46;;;;;;;18.90;11.95;;;;;7.00;102262.00;;;;5040816;28;20625;-72
2023/03/02 04:23:13;;;;;;;18.15;11.07;;;;;7.00;102272.00;;;;5045838;28;20203;-72
2023/03/02 04:25:40;;;;;;;19.52;10.77;;;;;6.90;102269.00;;;;5045604;28;20200;-73
2023/03/02 04:28:08;;;;;;;21.27;12.07;;;;;6.90;102256.00;;;;5040122;28;20196;-73
2023/03/02 04:30:35;;;;;;;19.00;11.30;;;;;6.90;102265.00;;;;5046118;28;20624;-72
2023/03/02 04:33:02;;;;;;;18.15;11.27;;;;;6.90;102265.00;;;;5044201;28;20674;-72
2023/03/02 04:35:31;;;;;;;18.67;11.73;;;;;6.90;102262.00;;;;5045711;28;20283;-72
2023/03/02 04:37:58;;;;;;;19.42;10.65;;;;;6.90;102263.00;;;;5045235;28;20223;-72
2023/03/02 04:40:25;;;;;;;18.95;11.35;;;;;6.90;102265.00;;;;5047233;28;20202;-72
2023/03/02 04:42:53;;;;;;;18.30;11.05;;;;;6.90;102259.00;;;;5039746;28;20203;-72
2023/03/02 04:45:20;;;;;;;16.52;10.52;;;;;6.90;102262.00;;;;5046845;28;20195;-72
2023/03/02 04:47:47;;;;;;;17.92;10.63;;;;;6.90;102259.00;;;;5045454;28;20214;-72
2023/03/02 04:50:15;;;;;;;18.15;10.57;;;;;6.90;102255.00;;;;5034664;28;20196;-72
2023/03/02 04:52:44;;;;;;;17.98;10.98;;;;;6.90;102255.00;;;;5039801;28;20208;-72
2023/03/02 04:55:19;;;;;;;16.45;10.00;;;;;6.80;102260.00;;;;5046484;28;20578;-72
2023/03/02 04:57:46;;;;;;;18.77;10.70;;;;;6.90;102261.00;;;;5042998;28;20589;-72
2023/03/02 05:00:15;;;;;;;17.60;10.73;;;;;6.90;102258.00;;;;5047012;28;20199;-72
2023/03/02 05:02:43;;;;;;;19.33;11.35;;;;;6.90;102272.00;;;;5045839;28;20227;-72
2023/03/02 05:05:15;;;;;;;18.00;10.68;;;;;6.80;102261.00;;;;5047600;28;20199;-73
2023/03/02 05:07:44;;;;;;;17.90;11.02;;;;;6.80;102265.00;;;;5047907;28;20231;-74
2023/03/02 05:10:12;;;;;;;18.27;11.23;;;;;6.80;102259.00;;;;5051119;28;20204;-72
2023/03/02 05:12:53;;;;;;;17.00;10.30;;;;;6.80;102259.00;;;;5048597;28;20199;-72
2023/03/02 05:15:21;;;;;;;19.33;10.65;;;;;6.80;102252.00;;;;5048938;28;20203;-72
2023/03/02 05:17:48;;;;;;;18.02;10.65;;;;;6.80;102244.00;;;;5046684;28;20253;-72
2023/03/02 05:20:16;;;;;;;16.23;9.40;;;;;6.80;102244.00;;;;5045165;28;20203;-72
2023/03/02 05:22:44;;;;;;;21.42;10.55;;;;;6.80;102252.00;;;;5045630;28;20200;-72
2023/03/02 05:25:13;;;;;;;16.75;10.38;;;;;6.80;102245.00;;;;5048247;28;20203;-72
2023/03/02 05:27:40;;;;;;;18.05;10.40;;;;;6.80;102244.00;;;;5043411;28;20611;-72
2023/03/02 05:30:09;;;;;;;16.23;10.20;;;;;6.80;102251.00;;;;5050861;28;20187;-72
2023/03/02 05:32:36;;;;;;;18.42;9.90;;;;;6.80;102239.00;;;;5048174;28;20659;-71
2023/03/02 05:35:03;;;;;;;20.25;9.98;;;;;6.70;102241.00;;;;5049550;28;20658;-72
2023/03/02 05:37:31;;;;;;;20.13;11.02;;;;;6.70;102246.00;;;;5047551;28;20219;-72
2023/03/02 05:39:59;;;;;;;18.77;10.75;;;;;6.70;102246.00;;;;5048155;28;20203;-72
2023/03/02 05:42:27;;;;;;;17.95;10.77;;;;;6.70;102245.00;;;;5038797;28;20199;-72
2023/03/02 05:44:54;;;;;;;19.17;11.02;;;;;6.70;102248.00;;;;5049286;28;20192;-72
2023/03/02 05:47:21;;;;;;;15.80;9.88;;;;;6.70;102250.00;;;;5050152;28;20207;-72
2023/03/02 05:49:49;;;;;;;20.00;12.07;;;;;6.70;102254.00;;;;5050343;28;20203;-72
2023/03/02 05:52:16;;;;;;;18.15;10.57;;;;;6.70;102255.00;;;;5047784;28;20455;-72
2023/03/02 05:54:43;;;;;;;18.17;10.52;;;;;6.70;102255.00;;;;5050115;28;20192;-72
2023/03/02 05:57:12;;;;;;;20.50;11.60;;;;;6.60;102248.00;;;;5045242;28;20578;-72
2023/03/02 05:59:39;;;;;;;21.67;11.95;;;;;6.70;102256.00;;;;5050585;28;20227;-72
2023/03/02 06:02:06;;;;;;;20.13;11.20;;;;;6.60;102253.00;;;;5048458;28;20198;-72
2023/03/02 06:04:34;;;;;;;16.98;10.02;;;;;6.60;102257.00;;;;5048797;28;20196;-72
2023/03/02 06:07:01;;;;;;;20.27;11.30;;;;;6.60;102249.00;;;;5047177;28;20231;-72
2023/03/02 06:09:28;;;;;;;19.05;11.55;;;;;6.60;102263.00;;;;5041625;28;20199;-74
2023/03/02 06:11:55;;;;;;;17.48;9.93;;;;;6.60;102261.00;;;;5041837;28;20211;-73
2023/03/02 06:14:24;;;;;;;22.35;11.60;;;;;6.50;102260.00;;;;5046793;28;20208;-73
2023/03/02 06:16:51;;;;;;;20.15;11.05;;;;;6.50;102259.00;;;;5038020;28;20230;-73
2023/03/02 06:19:19;;;;;;;18.02;10.65;;;;;6.50;102257.00;;;;5045828;28;20228;-73
2023/03/02 06:21:46;;;;;;;19.40;10.82;;;;;6.50;102266.00;;;;5048048;28;20214;-73
2023/03/02 06:24:13;;;;;;;21.17;12.40;;;;;6.50;102265.00;;;;5047248;28;20199;-73
2023/03/02 06:26:40;;;;;;;19.73;11.27;;;;;6.40;102268.00;;;;5048029;28;20200;-73
2023/03/02 06:29:08;;;;;;;20.27;11.80;;;;;6.40;102268.00;;;;5045615;28;20580;-74
2023/03/02 06:31:36;;;;;;;19.63;11.50;;;;;6.40;102266.00;;;;5045239;28;20866;-73
2023/03/02 06:34:04;;;;;;;22.45;11.93;;;;;6.40;102270.00;;;;5049266;28;20192;-73
2023/03/02 06:36:31;;;;;;;22.63;12.18;;;;;6.40;102268.00;;;;5046068;28;20769;-73
2023/03/02 06:38:58;;;;;;;19.27;10.93;;;;;6.40;102279.00;;;;5045834;28;20223;-73
2023/03/02 06:41:26;;;;;;;20.17;11.80;;;;;6.40;102283.00;;;;5043964;28;20196;-73
2023/03/02 06:43:53;;;;;;;20.75;11.45;;;;;6.40;102285.00;;;;5048461;28;20203;-74
2023/03/02 06:46:21;;;;;;;21.33;11.38;;;;;6.40;102286.00;;;;5046769;28;20188;-74
2023/03/02 06:48:50;;;;;;;22.50;11.93;;;;;6.40;102287.00;;;;5045926;28;20317;-74
2023/03/02 06:51:17;;;;;;;17.83;10.30;;;;;6.40;102287.00;;;;5049169;28;20290;-74
2023/03/02 06:53:45;;;;;;;19.50;11.00;;;;;6.40;102291.00;;;;5043341;28;20617;-74
2023/03/02 06:56:12;;;;;;;22.98;10.93;;;;;6.40;102289.00;;;;5045097;28;20200;-74
2023/03/02 06:58:39;;;;;;;18.10;10.82;;;;;6.40;102290.00;;;;5045543;28;20253;-74
2023/03/02 07:01:08;;;;;;;19.27;10.90;;;;;6.40;102286.00;;;;5038265;28;20559;-74
2023/03/02 07:03:36;;;;;;;19.00;10.60;;;;;6.40;102288.00;;;;5042360;28;20200;-74
2023/03/02 07:06:05;;;;;;;22.17;11.18;;;;;6.40;102289.00;;;;5044374;28;20223;-74
2023/03/02 07:08:32;;;;;;;20.90;12.00;;;;;6.40;102286.00;;;;5043361;28;20700;-74
2023/03/02 07:10:59;;;;;;;21.52;11.68;;;;;6.40;102281.00;;;;5041928;28;20199;-74
2023/03/02 07:13:29;;;;;;;20.50;11.48;;;;;6.50;102278.00;;;;5041536;28;20196;-74
2023/03/02 07:15:57;;;;;;;18.75;10.90;;;;;6.50;102276.00;;;;5046826;28;20753;-74
2023/03/02 07:18:25;;;;;;;20.17;11.18;;;;;6.50;102279.00;;;;5042530;28;20223;-73
2023/03/02 07:20:52;;;;;;;21.90;11.88;;;;;6.50;102275.00;;;;5048049;28;20569;-74
2023/03/02 07:23:23;;;;;;;18.52;10.77;;;;;6.50;102273.00;;;;5048213;28;20195;-74
2023/03/02 07:25:50;;;;;;;24.77;12.18;;;;;6.60;102277.00;;;;5052950;28;20188;-74
2023/03/02 07:28:20;;;;;;;19.98;11.00;;;;;6.60;102275.00;;;;5042011;28;20196;-74
2023/03/02 07:30:47;;;;;;;22.85;11.82;;;;;6.60;102273.00;;;;5046708;28;20202;-74
2023/03/02 07:33:15;;;;;;;25.13;12.98;;;;;6.60;102278.00;;;;5047135;28;20202;-74
2023/03/02 07:35:42;;;;;;;21.98;11.23;;;;;6.60;102269.00;;;;5039574;28;20204;-74
2023/03/02 07:38:09;;;;;;;21.67;11.13;;;;;6.70;102271.00;;;;5045968;28;20219;-75
2023/03/02 07:40:40;;;;;;;22.85;11.93;;;;;6.70;102262.00;;;;5038145;28;20663;-71
2023/03/02 07:43:08;;;;;;;22.05;12.70;;;;;6.70;102271.00;;;;5032063;28;20310;-73
2023/03/02 07:45:36;;;;;;;35.85;11.80;;;;;6.80;102263.00;;;;5031859;28;20678;-72
2023/03/02 07:48:05;;;;;;;21.38;11.75;;;;;6.80;102263.00;;;;5039879;28;20199;-71
2023/03/02 07:50:32;;;;;;;19.80;10.77;;;;;6.80;102270.00;;;;5047033;28;20196;-71
2023/03/02 07:53:00;;;;;;;21.35;12.40;;;;;6.80;102265.00;;;;5048272;28;20188;-71
2023/03/02 07:55:27;;;;;;;22.77;12.40;;;;;6.90;102264.00;;;;5044695;28;20196;-71
2023/03/02 07:57:56;;;;;;;22.73;12.23;;;;;6.90;102268.00;;;;5045993;28;20670;-72
2023/03/02 08:00:24;;;;;;;21.70;11.68;;;;;7.00;102263.00;;;;5047379;28;20203;-72
2023/03/02 08:02:51;;;;;;;23.30;12.27;;;;;7.00;102262.00;;;;5046371;28;20215;-72
2023/03/02 08:05:18;;;;;;;23.45;11.77;;;;;7.00;102265.00;;;;5047252;28;20198;-72
2023/03/02 08:07:47;;;;;;;23.27;12.88;;;;;7.10;102261.00;;;;5048801;28;20235;-72
2023/03/02 08:10:15;;;;;;;22.15;12.40;;;;;7.10;102264.00;;;;5048860;28;20199;-72
2023/03/02 08:12:42;;;;;;;20.02;11.07;;;;;7.20;102262.00;;;;5048019;28;20192;-72
2023/03/02 08:15:12;;;;;;;26.85;14.15;;;;;7.20;102265.00;;;;5040195;28;20215;-72
2023/03/02 08:17:39;;;;;;;21.05;11.95;;;;;7.30;102266.00;;;;5041418;28;20230;-73
2023/03/02 08:20:08;;;;;;;23.83;12.00;;;;;7.30;102260.00;;;;5042423;28;20238;-73
2023/03/02 08:22:35;;;;;;;21.10;11.27;;;;;7.30;102269.00;;;;5039503;28;20200;-72
2023/03/02 08:25:03;;;;;;;18.90;11.07;;;;;7.40;102263.00;;;;5045950;28;20689;-72
2023/03/02 08:27:30;;;;;;;20.60;11.00;;;;;7.40;102268.00;;;;5047411;28;20207;-72
2023/03/02 08:29:58;;;;;;;19.42;11.45;;;;;7.50;102270.00;;;;5042624;28;20208;-72
2023/03/02 08:32:27;;;;;;;20.90;11.82;;;;;7.50;102262.00;;;;5043169;28;20204;-73
2023/03/02 08:34:54;;;;;;;20.98;10.95;;;;;7.60;102269.00;;;;5042652;28;20207;-72
2023/03/02 08:37:21;;;;;;;18.08;10.48;;;;;7.60;102271.00;;;;5045955;28;20207;-72
2023/03/02 08:39:50;;;;;;;18.20;10.85;;;;;7.70;102271.00;;;;5045193;28;20226;-73
2023/03/02 08:42:17;;;;;;;21.25;10.30;;;;;7.80;102272.00;;;;5051451;28;20206;-73
2023/03/02 08:44:45;;;;;;;17.10;9.38;;;;;7.80;102270.00;;;;5050731;28;20712;-73
2023/03/02 08:47:12;;;;;;;19.23;10.73;;;;;7.90;102276.00;;;;5048576;28;20195;-73
2023/03/02 08:49:41;;;;;;;18.52;10.05;;;;;8.00;102271.00;;;;5043240;28;20195;-73
2023/03/02 08:52:08;;;;;;;17.30;10.00;;;;;8.10;102273.00;;;;5044448;28;20203;-72
2023/03/02 08:54:39;;;;;;;22.50;10.93;;;;;8.10;102276.00;;;;5036027;28;20420;-73
2023/03/02 08:57:11;;;;;;;18.02;10.45;;;;;8.20;102276.00;;;;5043972;28;20195;-72
2023/03/02 08:59:38;;;;;;;18.58;10.68;;;;;8.30;102273.00;;;;5044943;28;21131;-73
2023/03/02 09:02:05;;;;;;;20.13;10.60;;;;;8.40;102273.00;;;;5043169;28;20200;-73
2023/03/02 09:04:33;;;;;;;16.83;10.07;;;;;8.50;102280.00;;;;5048664;28;20210;-72
2023/03/02 09:07:02;;;;;;;18.23;9.80;;;;;8.50;102279.00;;;;5049539;28;21064;-72
2023/03/02 09:09:29;;;;;;;18.52;9.65;;;;;8.60;102276.00;;;;5048617;28;20210;-72
2023/03/02 09:11:56;;;;;;;16.25;10.15;;;;;8.70;102271.00;;;;5050770;28;20216;-73
2023/03/02 09:14:24;;;;;;;18.25;10.18;;;;;8.80;102278.00;;;;5047586;28;20207;-74
2023/03/02 09:16:52;;;;;;;20.30;10.75;;;;;8.80;102270.00;;;;5048127;28;20226;-75
2023/03/02 09:19:20;;;;;;;16.80;9.23;;;;;8.90;102277.00;;;;5040664;28;20222;-75
2023/03/02 09:21:48;;;;;;;18.77;10.30;;;;;9.00;102275.00;;;;5039725;28;20211;-75
2023/03/02 09:24:16;;;;;;;21.05;10.27;;;;;9.00;102277.00;;;;5038421;28;20295;-74
2023/03/02 09:26:44;;;;;;;17.45;9.38;;;;;9.10;102281.00;;;;5045030;28;20207;-74
2023/03/02 09:29:12;;;;;;;20.75;9.93;;;;;9.20;102277.00;;;;5049436;28;20300;-74
2023/03/02 09:31:39;;;;;;;19.08;10.65;;;;;9.20;102278.00;;;;5049674;28;20195;-74
2023/03/02 09:34:07;;;;;;;19.85;10.30;;;;;9.30;102274.00;;;;5050078;28;20270;-74
2023/03/02 09:36:34;;;;;;;18.33;9.95;;;;;9.40;102276.00;;;;5044986;28;20200;-74
2023/03/02 09:39:07;;;;;;;15.23;9.18;;;;;9.50;102269.00;;;;5042954;28;20552;-74
2023/03/02 09:42:13;;;;;;;17.55;9.27;;;;;9.50;102274.00;;;;5046366;28;20619;-74
2023/03/02 09:45:13;;;;;;;14.93;8.55;;;;;9.60;102282.00;;;;5006219;28;20210;-74
2023/03/02 09:47:50;;;;;;;19.02;9.80;;;;;9.70;102286.00;;;;5040918;28;20235;-74
2023/03/02 09:50:28;;;;;;;16.80;8.27;;;;;9.80;102286.00;;;;5046831;28;20597;-75
2023/03/02 09:53:21;;;;;;;16.65;9.00;;;;;9.80;102285.00;;;;5046636;28;20285;-74
2023/03/02 09:55:53;;;;;;;13.95;8.35;;;;;9.90;102285.00;;;;5046290;28;20207;-73
2023/03/02 09:58:25;;;;;;;15.07;9.23;;;;;10.00;102295.00;;;;5042577;28;20192;-73
2023/03/02 10:00:53;;;;;;;17.23;9.88;;;;;10.10;102283.00;;;;5044394;28;20195;-73
2023/03/02 10:03:23;;;;;;;15.60;9.48;;;;;10.20;102283.00;;;;5040708;28;20192;-73
2023/03/02 10:05:53;;;;;;;13.73;9.18;;;;;10.30;102288.00;;;;5048156;28;20210;-73
2023/03/02 10:08:22;;;;;;;18.63;9.50;;;;;10.40;102284.00;;;;5049138;28;20250;-73
2023/03/02 10:10:57;;;;;;;17.60;9.40;;;;;10.50;102283.00;;;;5048559;28;20661;-74
2023/03/02 10:13:30;;;;;;;14.45;7.97;;;;;10.60;102287.00;;;;5041134;28;20202;-74
2023/03/02 10:16:12;;;;;;;14.90;8.95;;;;;10.60;102284.00;;;;5049498;28;20222;-74
2023/03/02 10:18:46;;;;;;;15.75;8.27;;;;;10.80;102289.00;;;;5050178;28;20191;-73
2023/03/02 10:21:22;;;;;;;16.95;9.57;;;;;10.90;102301.00;;;;5047650;28;20192;-74
2023/03/02 10:23:56;;;;;;;17.55;9.80;;;;;11.00;102294.00;;;;5043202;28;20195;-74
2023/03/02 10:26:39;;;;;;;17.75;8.95;;;;;11.10;102289.00;;;;5041557;28;20247;-74
2023/03/02 10:29:34;;;;;;;15.02;8.25;;;;;11.20;102289.00;;;;5043622;28;20779;-74
2023/03/02 10:32:12;;;;;;;14.02;8.07;;;;;11.30;102282.00;;;;5043765;28;20732;-74
2023/03/02 10:34:39;;;;;;;15.52;8.45;;;;;11.40;102281.00;;;;5041163;28;20235;-74
2023/03/02 10:37:11;;;;;;;14.45;8.73;;;;;11.50;102281.00;;;;5047706;28;20204;-74
2023/03/02 10:39:39;;;;;;;12.63;7.72;;;;;11.60;102281.00;;;;5044189;28;20252;-74
2023/03/02 10:42:11;;;;;;;14.48;8.18;;;;;11.70;102272.00;;;;5039694;28;20208;-75
2023/03/02 10:44:44;;;;;;;12.98;7.10;;;;;11.70;102271.00;;;;5041229;28;20191;-76
2023/03/02 10:47:20;;;;;;;14.65;8.63;;;;;11.80;102263.00;;;;5037155;28;20201;-74
2023/03/02 10:49:48;;;;;;;12.52;7.05;;;;;11.90;102276.00;;;;5044145;28;20206;-75
2023/03/02 10:52:18;;;;;;;13.23;7.90;;;;;12.00;102271.00;;;;5044709;28;20205;-75
2023/03/02 10:54:47;;;;;;;14.82;8.40;;;;;12.10;102275.00;;;;5042147;28;20207;-74
2023/03/02 10:57:30;;;;;;;13.75;7.43;;;;;12.00;102274.00;;;;5045080;28;20263;-74
2023/03/02 11:00:02;;;;;;;15.80;9.27;;;;;12.20;102272.00;;;;5037245;28;20269;-74
2023/03/02 11:02:32;;;;;;;13.57;7.88;;;;;12.30;102260.00;;;;5042388;28;20195;-75
2023/03/02 11:05:18;;;;;;;14.82;7.68;;;;;12.40;102268.00;;;;5044783;28;20202;-74
2023/03/02 11:07:53;;;;;;;11.43;6.90;;;;;12.50;102266.00;;;;5042765;28;20428;-74
2023/03/02 11:10:22;;;;;;;12.23;7.10;;;;;12.60;102260.00;;;;5047084;28;20650;-74
2023/03/02 11:12:52;;;;;;;13.43;7.13;;;;;12.70;102250.00;;;;5048499;28;20206;-74
2023/03/02 11:15:27;;;;;;;11.50;6.85;;;;;12.70;102246.00;;;;5048006;28;20208;-74
2023/03/02 11:18:07;;;;;;;14.77;7.75;;;;;12.80;102243.00;;;;5047554;28;20287;-74
2023/03/02 11:20:38;;;;;;;11.38;6.72;;;;;12.90;102247.00;;;;5046913;28;20231;-74
2023/03/02 11:23:21;;;;;;;11.32;6.65;;;;;13.00;102237.00;;;;5048081;28;20195;-74
2023/03/02 11:25:52;;;;;;;11.82;6.63;;;;;13.10;102236.00;;;;5039912;28;20204;-74
2023/03/02 11:28:34;;;;;;;12.68;7.63;;;;;13.20;102233.00;;;;5043900;28;20651;-75
2023/03/02 11:31:09;;;;;;;12.40;6.53;;;;;13.20;102241.00;;;;5044748;28;20204;-75
2023/03/02 11:33:42;;;;;;;12.18;7.03;;;;;13.30;102224.00;;;;5043418;28;20210;-75
2023/03/02 11:36:15;;;;;;;11.45;6.40;;;;;13.40;102238.00;;;;5048464;28;20192;-74
2023/03/02 11:38:48;;;;;;;10.02;5.63;;;;;13.50;102229.00;;;;5043638;28;20211;-74
2023/03/02 11:41:28;;;;;;;10.38;6.50;;;;;13.60;102219.00;;;;5040276;28;20231;-75
2023/03/02 11:43:58;;;;;;;10.80;6.18;;;;;13.70;102225.00;;;;5044209;28;20657;-74
2023/03/02 11:46:30;;;;;;;9.65;5.90;;;;;13.80;102232.00;;;;5046295;28;20210;-74
2023/03/02 11:49:03;;;;;;;10.98;5.80;;;;;13.80;102227.00;;;;5044920;28;21027;-74
2023/03/02 11:51:35;;;;;;;11.45;6.00;;;;;13.90;102214.00;;;;5043487;28;20558;-75
2023/03/02 11:54:05;;;;;;;12.38;6.22;;;;;14.00;102223.00;;;;5044128;28;20207;-74
2023/03/02 11:56:36;;;;;;;12.60;6.43;;;;;14.10;102217.00;;;;5043992;28;20203;-74
2023/03/02 11:59:11;;;;;;;9.95;5.47;;;;;14.20;102216.00;;;;5044760;28;20200;-74
2023/03/02 12:01:40;;;;;;;10.65;6.53;;;;;14.20;102209.00;;;;5044005;28;20744;-75
2023/03/02 12:04:09;;;;;;;9.75;5.65;;;;;14.30;102211.00;;;;5047054;28;20204;-74
2023/03/02 12:06:39;;;;;;;9.70;5.82;;;;;14.40;102205.00;;;;5045459;28;20226;-74
2023/03/02 12:09:29;;;;;;;8.43;5.13;;;;;14.40;102203.00;;;;5036794;28;20200;-74
2023/03/02 12:12:00;;;;;;;7.43;5.13;;;;;14.50;102205.00;;;;5036983;28;20191;-74
2023/03/02 12:14:36;;;;;;;9.35;6.03;;;;;14.60;102200.00;;;;5045363;28;20200;-74